sensor_id;sensor_type;location;lat;lon;timestamp;P1;durP1;ratioP1;P2;durP2;ratioP2
69083;SDS011;56185;48.526;9.044;2022-09-14T00:00:47;3.83;;;1.83;;
69083;SDS011;56185;48.526;9.044;2022-09-14T00:03:13;3.45;;;1.80;;
69083;SDS011;56185;48.526;9.044;2022-09-14T00:05:39;4.50;;;1.90;;
69083;SDS011;56185;48.526;9.044;2022-09-14T00:08:04;4.93;;;1.90;;
69083;SDS011;56185;48.526;9.044;2022-09-14T00:10:29;4.07;;;1.90;;
69083;SDS011;56185;48.526;9.044;2022-09-14T00:12:55;5.82;;;1.92;;
69083;SDS011;56185;48.526;9.044;2022-09-14T00:15:20;2.50;;;1.93;;
69083;SDS011;56185;48.526;9.044;2022-09-14T00:17:46;8.77;;;2.33;;
69083;SDS011;56185;48.526;9.044;2022-09-14T00:20:11;3.25;;;1.80;;
69083;SDS011;56185;48.526;9.044;2022-09-14T00:22:36;2.40;;;1.63;;
69083;SDS011;56185;48.526;9.044;2022-09-14T00:25:02;4.40;;;1.97;;
69083;SDS011;56185;48.526;9.044;2022-09-14T00:27:27;2.85;;;1.90;;
69083;SDS011;56185;48.526;9.044;2022-09-14T00:29:53;3.37;;;2.10;;
69083;SDS011;56185;48.526;9.044;2022-09-14T00:32:18;3.80;;;1.90;;
69083;SDS011;56185;48.526;9.044;2022-09-14T00:34:43;5.05;;;1.98;;
69083;SDS011;56185;48.526;9.044;2022-09-14T00:37:09;3.43;;;1.77;;
69083;SDS011;56185;48.526;9.044;2022-09-14T00:39:35;4.72;;;1.77;;
69083;SDS011;56185;48.526;9.044;2022-09-14T00:42:00;4.90;;;2.00;;
69083;SDS011;56185;48.526;9.044;2022-09-14T00:46:51;3.93;;;2.00;;
69083;SDS011;56185;48.526;9.044;2022-09-14T00:51:53;3.80;;;1.80;;
69083;SDS011;56185;48.526;9.044;2022-09-14T00:54:24;3.17;;;1.92;;
69083;SDS011;56185;48.526;9.044;2022-09-14T00:56:50;2.90;;;1.88;;
69083;SDS011;56185;48.526;9.044;2022-09-14T00:59:18;2.75;;;2.00;;
69083;SDS011;56185;48.526;9.044;2022-09-14T01:01:45;4.53;;;2.25;;
69083;SDS011;56185;48.526;9.044;2022-09-14T01:04:11;4.25;;;2.00;;
69083;SDS011;56185;48.526;9.044;2022-09-14T01:06:46;6.00;;;2.50;;
69083;SDS011;56185;48.526;9.044;2022-09-14T01:20:50;5.35;;;2.15;;
69083;SDS011;56185;48.526;9.044;2022-09-14T01:23:23;4.20;;;2.10;;
69083;SDS011;56185;48.526;9.044;2022-09-14T01:31:26;3.25;;;2.05;;
69083;SDS011;56185;48.526;9.044;2022-09-14T01:33:57;4.85;;;1.80;;
69083;SDS011;56185;48.526;9.044;2022-09-14T01:36:31;4.68;;;1.80;;
69083;SDS011;56185;48.526;9.044;2022-09-14T01:39:00;3.70;;;2.00;;
69083;SDS011;56185;48.526;9.044;2022-09-14T01:41:26;2.95;;;1.92;;
69083;SDS011;56185;48.526;9.044;2022-09-14T01:46:44;5.78;;;1.90;;
69083;SDS011;56185;48.526;9.044;2022-09-14T01:49:21;8.23;;;2.10;;
69083;SDS011;56185;48.526;9.044;2022-09-14T01:52:00;4.30;;;1.90;;
69083;SDS011;56185;48.526;9.044;2022-09-14T01:54:35;4.20;;;2.25;;
69083;SDS011;56185;48.526;9.044;2022-09-14T01:57:16;4.10;;;2.10;;
69083;SDS011;56185;48.526;9.044;2022-09-14T01:59:48;4.07;;;2.10;;
69083;SDS011;56185;48.526;9.044;2022-09-14T02:02:25;4.78;;;2.10;;
69083;SDS011;56185;48.526;9.044;2022-09-14T02:07:48;6.35;;;2.17;;
69083;SDS011;56185;48.526;9.044;2022-09-14T02:10:14;4.40;;;2.40;;
69083;SDS011;56185;48.526;9.044;2022-09-14T02:12:40;3.40;;;1.92;;
69083;SDS011;56185;48.526;9.044;2022-09-14T02:15:07;3.28;;;2.15;;
69083;SDS011;56185;48.526;9.044;2022-09-14T02:17:34;3.10;;;1.95;;
69083;SDS011;56185;48.526;9.044;2022-09-14T02:20:01;4.33;;;2.30;;
69083;SDS011;56185;48.526;9.044;2022-09-14T02:22:29;3.85;;;2.08;;
69083;SDS011;56185;48.526;9.044;2022-09-14T02:24:55;2.88;;;2.30;;
69083;SDS011;56185;48.526;9.044;2022-09-14T02:27:21;7.10;;;2.25;;
69083;SDS011;56185;48.526;9.044;2022-09-14T02:29:46;3.58;;;2.03;;
69083;SDS011;56185;48.526;9.044;2022-09-14T02:32:23;2.75;;;2.03;;
69083;SDS011;56185;48.526;9.044;2022-09-14T02:35:06;4.28;;;2.10;;
69083;SDS011;56185;48.526;9.044;2022-09-14T02:48:05;4.47;;;2.58;;
69083;SDS011;56185;48.526;9.044;2022-09-14T02:50:56;4.75;;;2.28;;
69083;SDS011;56185;48.526;9.044;2022-09-14T02:53:45;5.32;;;2.53;;
69083;SDS011;56185;48.526;9.044;2022-09-14T02:56:17;5.93;;;2.53;;
69083;SDS011;56185;48.526;9.044;2022-09-14T02:58:44;5.63;;;2.50;;
69083;SDS011;56185;48.526;9.044;2022-09-14T03:01:14;6.93;;;2.60;;
69083;SDS011;56185;48.526;9.044;2022-09-14T03:03:41;3.80;;;2.50;;
69083;SDS011;56185;48.526;9.044;2022-09-14T03:06:06;5.93;;;2.60;;
69083;SDS011;56185;48.526;9.044;2022-09-14T03:08:32;5.47;;;2.72;;
69083;SDS011;56185;48.526;9.044;2022-09-14T03:10:57;6.43;;;2.65;;
69083;SDS011;56185;48.526;9.044;2022-09-14T03:13:22;4.63;;;2.58;;
69083;SDS011;56185;48.526;9.044;2022-09-14T03:15:48;5.45;;;2.38;;
69083;SDS011;56185;48.526;9.044;2022-09-14T03:18:13;5.17;;;2.77;;
69083;SDS011;56185;48.526;9.044;2022-09-14T03:20:38;6.40;;;2.55;;
69083;SDS011;56185;48.526;9.044;2022-09-14T03:23:04;6.47;;;2.57;;
69083;SDS011;56185;48.526;9.044;2022-09-14T03:25:30;4.53;;;2.97;;
69083;SDS011;56185;48.526;9.044;2022-09-14T03:27:59;5.35;;;3.10;;
69083;SDS011;56185;48.526;9.044;2022-09-14T03:30:25;5.97;;;2.90;;
69083;SDS011;56185;48.526;9.044;2022-09-14T03:32:51;6.38;;;3.08;;
69083;SDS011;56185;48.526;9.044;2022-09-14T03:35:16;5.80;;;3.15;;
69083;SDS011;56185;48.526;9.044;2022-09-14T03:37:42;5.10;;;3.10;;
69083;SDS011;56185;48.526;9.044;2022-09-14T03:40:09;6.10;;;3.17;;
69083;SDS011;56185;48.526;9.044;2022-09-14T03:42:36;5.40;;;3.10;;
69083;SDS011;56185;48.526;9.044;2022-09-14T03:45:05;7.85;;;3.08;;
69083;SDS011;56185;48.526;9.044;2022-09-14T03:47:30;6.80;;;3.30;;
69083;SDS011;56185;48.526;9.044;2022-09-14T03:49:57;3.95;;;2.55;;
69083;SDS011;56185;48.526;9.044;2022-09-14T03:52:22;6.50;;;2.90;;
69083;SDS011;56185;48.526;9.044;2022-09-14T03:54:47;4.97;;;3.40;;
69083;SDS011;56185;48.526;9.044;2022-09-14T03:57:13;4.80;;;3.20;;
69083;SDS011;56185;48.526;9.044;2022-09-14T03:59:39;5.18;;;3.20;;
69083;SDS011;56185;48.526;9.044;2022-09-14T04:02:04;6.50;;;3.57;;
69083;SDS011;56185;48.526;9.044;2022-09-14T04:04:30;5.28;;;3.00;;
69083;SDS011;56185;48.526;9.044;2022-09-14T04:06:55;6.13;;;3.40;;
69083;SDS011;56185;48.526;9.044;2022-09-14T04:09:21;4.97;;;3.10;;
69083;SDS011;56185;48.526;9.044;2022-09-14T04:11:47;6.45;;;3.17;;
69083;SDS011;56185;48.526;9.044;2022-09-14T04:14:13;5.13;;;3.13;;
69083;SDS011;56185;48.526;9.044;2022-09-14T04:16:38;4.05;;;2.92;;
69083;SDS011;56185;48.526;9.044;2022-09-14T04:19:04;4.25;;;3.10;;
69083;SDS011;56185;48.526;9.044;2022-09-14T04:21:30;6.07;;;3.15;;
69083;SDS011;56185;48.526;9.044;2022-09-14T04:23:56;3.92;;;3.08;;
69083;SDS011;56185;48.526;9.044;2022-09-14T04:26:23;4.00;;;3.00;;
69083;SDS011;56185;48.526;9.044;2022-09-14T04:28:50;5.72;;;3.13;;
69083;SDS011;56185;48.526;9.044;2022-09-14T04:31:15;5.80;;;3.30;;
69083;SDS011;56185;48.526;9.044;2022-09-14T04:33:42;4.70;;;3.00;;
69083;SDS011;56185;48.526;9.044;2022-09-14T04:36:10;4.05;;;3.10;;
69083;SDS011;56185;48.526;9.044;2022-09-14T04:38:38;5.15;;;3.33;;
69083;SDS011;56185;48.526;9.044;2022-09-14T04:41:09;4.97;;;3.33;;
69083;SDS011;56185;48.526;9.044;2022-09-14T04:43:37;5.30;;;2.92;;
69083;SDS011;56185;48.526;9.044;2022-09-14T04:46:03;5.63;;;3.10;;
69083;SDS011;56185;48.526;9.044;2022-09-14T04:48:30;4.00;;;3.10;;
69083;SDS011;56185;48.526;9.044;2022-09-14T04:50:59;5.65;;;3.05;;
69083;SDS011;56185;48.526;9.044;2022-09-14T04:53:27;5.55;;;2.80;;
69083;SDS011;56185;48.526;9.044;2022-09-14T04:55:52;10.70;;;9.43;;
69083;SDS011;56185;48.526;9.044;2022-09-14T04:58:23;9.07;;;3.55;;
69083;SDS011;56185;48.526;9.044;2022-09-14T05:00:48;8.07;;;3.53;;
69083;SDS011;56185;48.526;9.044;2022-09-14T05:03:13;6.87;;;3.53;;
69083;SDS011;56185;48.526;9.044;2022-09-14T05:05:39;5.77;;;3.63;;
69083;SDS011;56185;48.526;9.044;2022-09-14T05:08:04;4.57;;;3.07;;
69083;SDS011;56185;48.526;9.044;2022-09-14T05:10:29;4.93;;;3.60;;
69083;SDS011;56185;48.526;9.044;2022-09-14T05:12:55;5.43;;;3.40;;
69083;SDS011;56185;48.526;9.044;2022-09-14T05:15:20;7.05;;;3.63;;
69083;SDS011;56185;48.526;9.044;2022-09-14T05:17:45;5.40;;;3.80;;
69083;SDS011;56185;48.526;9.044;2022-09-14T05:20:10;4.93;;;3.53;;
69083;SDS011;56185;48.526;9.044;2022-09-14T05:22:35;9.30;;;3.93;;
69083;SDS011;56185;48.526;9.044;2022-09-14T05:25:01;5.60;;;3.73;;
69083;SDS011;56185;48.526;9.044;2022-09-14T05:27:26;5.73;;;4.00;;
69083;SDS011;56185;48.526;9.044;2022-09-14T05:29:51;5.53;;;3.63;;
69083;SDS011;56185;48.526;9.044;2022-09-14T05:32:16;6.97;;;3.33;;
69083;SDS011;56185;48.526;9.044;2022-09-14T05:34:42;6.13;;;3.30;;
69083;SDS011;56185;48.526;9.044;2022-09-14T05:37:07;7.10;;;3.50;;
69083;SDS011;56185;48.526;9.044;2022-09-14T05:39:35;5.38;;;3.40;;
69083;SDS011;56185;48.526;9.044;2022-09-14T05:42:00;6.07;;;3.77;;
69083;SDS011;56185;48.526;9.044;2022-09-14T05:44:26;6.50;;;3.43;;
69083;SDS011;56185;48.526;9.044;2022-09-14T05:46:51;6.63;;;3.97;;
69083;SDS011;56185;48.526;9.044;2022-09-14T05:49:16;8.17;;;4.00;;
69083;SDS011;56185;48.526;9.044;2022-09-14T05:51:41;4.97;;;3.07;;
69083;SDS011;56185;48.526;9.044;2022-09-14T05:54:06;6.73;;;3.73;;
69083;SDS011;56185;48.526;9.044;2022-09-14T05:56:32;7.37;;;3.70;;
69083;SDS011;56185;48.526;9.044;2022-09-14T05:58:57;5.87;;;3.43;;
69083;SDS011;56185;48.526;9.044;2022-09-14T06:01:24;5.68;;;3.30;;
69083;SDS011;56185;48.526;9.044;2022-09-14T06:03:54;7.40;;;3.80;;
69083;SDS011;56185;48.526;9.044;2022-09-14T06:06:20;5.00;;;3.90;;
69083;SDS011;56185;48.526;9.044;2022-09-14T06:08:47;6.70;;;4.00;;
69083;SDS011;56185;48.526;9.044;2022-09-14T06:11:14;10.15;;;4.07;;
69083;SDS011;56185;48.526;9.044;2022-09-14T06:13:41;7.07;;;3.90;;
69083;SDS011;56185;48.526;9.044;2022-09-14T06:16:08;5.35;;;3.88;;
69083;SDS011;56185;48.526;9.044;2022-09-14T06:18:36;5.45;;;4.00;;
69083;SDS011;56185;48.526;9.044;2022-09-14T06:21:02;5.97;;;3.70;;
69083;SDS011;56185;48.526;9.044;2022-09-14T06:23:29;4.97;;;3.88;;
69083;SDS011;56185;48.526;9.044;2022-09-14T06:25:55;6.80;;;4.00;;
69083;SDS011;56185;48.526;9.044;2022-09-14T06:28:22;5.53;;;3.90;;
69083;SDS011;56185;48.526;9.044;2022-09-14T06:30:48;7.05;;;3.95;;
69083;SDS011;56185;48.526;9.044;2022-09-14T06:33:13;5.00;;;3.70;;
69083;SDS011;56185;48.526;9.044;2022-09-14T06:35:38;3.53;;;2.83;;
69083;SDS011;56185;48.526;9.044;2022-09-14T06:38:04;5.40;;;3.30;;
69083;SDS011;56185;48.526;9.044;2022-09-14T06:40:29;4.00;;;2.97;;
69083;SDS011;56185;48.526;9.044;2022-09-14T06:42:54;6.50;;;2.80;;
69083;SDS011;56185;48.526;9.044;2022-09-14T06:45:19;7.00;;;3.17;;
69083;SDS011;56185;48.526;9.044;2022-09-14T06:47:44;5.63;;;3.10;;
69083;SDS011;56185;48.526;9.044;2022-09-14T06:50:10;6.33;;;3.30;;
69083;SDS011;56185;48.526;9.044;2022-09-14T06:52:35;4.95;;;3.42;;
69083;SDS011;56185;48.526;9.044;2022-09-14T06:55:01;6.28;;;3.63;;
69083;SDS011;56185;48.526;9.044;2022-09-14T06:57:26;8.00;;;3.53;;
69083;SDS011;56185;48.526;9.044;2022-09-14T06:59:51;5.43;;;4.00;;
69083;SDS011;56185;48.526;9.044;2022-09-14T07:02:17;6.90;;;3.93;;
69083;SDS011;56185;48.526;9.044;2022-09-14T07:04:42;6.97;;;3.30;;
69083;SDS011;56185;48.526;9.044;2022-09-14T07:07:07;7.53;;;3.03;;
69083;SDS011;56185;48.526;9.044;2022-09-14T07:09:32;4.40;;;2.57;;
69083;SDS011;56185;48.526;9.044;2022-09-14T07:11:57;6.77;;;3.43;;
69083;SDS011;56185;48.526;9.044;2022-09-14T07:14:23;4.37;;;2.53;;
69083;SDS011;56185;48.526;9.044;2022-09-14T07:16:48;4.43;;;3.13;;
69083;SDS011;56185;48.526;9.044;2022-09-14T07:19:13;6.77;;;3.47;;
69083;SDS011;56185;48.526;9.044;2022-09-14T07:21:39;6.10;;;3.45;;
69083;SDS011;56185;48.526;9.044;2022-09-14T07:24:05;5.30;;;3.33;;
69083;SDS011;56185;48.526;9.044;2022-09-14T07:26:31;7.72;;;3.72;;
69083;SDS011;56185;48.526;9.044;2022-09-14T07:29:05;7.70;;;3.93;;
69083;SDS011;56185;48.526;9.044;2022-09-14T07:31:36;4.80;;;3.65;;
69083;SDS011;56185;48.526;9.044;2022-09-14T07:34:04;5.97;;;3.78;;
69083;SDS011;56185;48.526;9.044;2022-09-14T07:36:32;5.20;;;3.60;;
69083;SDS011;56185;48.526;9.044;2022-09-14T07:38:58;4.38;;;3.53;;
69083;SDS011;56185;48.526;9.044;2022-09-14T07:41:27;8.48;;;3.58;;
69083;SDS011;56185;48.526;9.044;2022-09-14T07:43:54;7.60;;;3.97;;
69083;SDS011;56185;48.526;9.044;2022-09-14T07:46:20;5.43;;;3.20;;
69083;SDS011;56185;48.526;9.044;2022-09-14T07:48:47;4.55;;;3.25;;
69083;SDS011;56185;48.526;9.044;2022-09-14T07:51:13;4.35;;;2.97;;
69083;SDS011;56185;48.526;9.044;2022-09-14T07:53:39;5.32;;;2.70;;
69083;SDS011;56185;48.526;9.044;2022-09-14T07:56:05;6.72;;;3.03;;
69083;SDS011;56185;48.526;9.044;2022-09-14T07:58:31;6.13;;;2.63;;
69083;SDS011;56185;48.526;9.044;2022-09-14T08:01:01;4.90;;;2.97;;
69083;SDS011;56185;48.526;9.044;2022-09-14T08:03:28;6.55;;;3.00;;
69083;SDS011;56185;48.526;9.044;2022-09-14T08:06:01;3.80;;;2.65;;
69083;SDS011;56185;48.526;9.044;2022-09-14T08:08:29;6.32;;;2.75;;
69083;SDS011;56185;48.526;9.044;2022-09-14T08:11:01;6.25;;;2.90;;
69083;SDS011;56185;48.526;9.044;2022-09-14T08:13:31;4.47;;;2.38;;
69083;SDS011;56185;48.526;9.044;2022-09-14T08:15:57;4.20;;;2.60;;
69083;SDS011;56185;48.526;9.044;2022-09-14T08:18:22;7.37;;;2.70;;
69083;SDS011;56185;48.526;9.044;2022-09-14T08:20:48;3.73;;;2.33;;
69083;SDS011;56185;48.526;9.044;2022-09-14T08:23:13;5.97;;;2.67;;
69083;SDS011;56185;48.526;9.044;2022-09-14T08:25:38;3.47;;;2.53;;
69083;SDS011;56185;48.526;9.044;2022-09-14T08:28:03;3.43;;;2.60;;
69083;SDS011;56185;48.526;9.044;2022-09-14T08:30:28;5.17;;;2.37;;
69083;SDS011;56185;48.526;9.044;2022-09-14T08:32:54;5.73;;;2.33;;
69083;SDS011;56185;48.526;9.044;2022-09-14T08:35:19;5.77;;;2.50;;
69083;SDS011;56185;48.526;9.044;2022-09-14T08:37:44;11.10;;;2.40;;
69083;SDS011;56185;48.526;9.044;2022-09-14T08:40:09;3.87;;;2.33;;
69083;SDS011;56185;48.526;9.044;2022-09-14T08:42:36;5.15;;;2.40;;
69083;SDS011;56185;48.526;9.044;2022-09-14T08:45:02;3.63;;;2.22;;
69083;SDS011;56185;48.526;9.044;2022-09-14T08:47:33;5.72;;;2.17;;
69083;SDS011;56185;48.526;9.044;2022-09-14T08:54:59;4.32;;;2.05;;
69083;SDS011;56185;48.526;9.044;2022-09-14T08:57:47;4.00;;;2.40;;
69083;SDS011;56185;48.526;9.044;2022-09-14T09:00:17;4.30;;;2.10;;
69083;SDS011;56185;48.526;9.044;2022-09-14T09:10:53;3.45;;;1.90;;
69083;SDS011;56185;48.526;9.044;2022-09-14T09:13:19;3.05;;;2.00;;
69083;SDS011;56185;48.526;9.044;2022-09-14T09:15:51;5.90;;;2.45;;
69083;SDS011;56185;48.526;9.044;2022-09-14T09:20:58;4.55;;;2.15;;
69083;SDS011;56185;48.526;9.044;2022-09-14T09:23:28;3.83;;;2.20;;
69083;SDS011;56185;48.526;9.044;2022-09-14T09:28:41;8.77;;;1.98;;
69083;SDS011;56185;48.526;9.044;2022-09-14T09:31:13;3.83;;;2.00;;
69083;SDS011;56185;48.526;9.044;2022-09-14T09:33:40;2.40;;;1.80;;
69083;SDS011;56185;48.526;9.044;2022-09-14T09:36:07;2.88;;;1.88;;
69083;SDS011;56185;48.526;9.044;2022-09-14T09:38:37;5.07;;;1.83;;
69083;SDS011;56185;48.526;9.044;2022-09-14T09:44:00;3.55;;;1.98;;
69083;SDS011;56185;48.526;9.044;2022-09-14T09:46:28;7.30;;;1.90;;
69083;SDS011;56185;48.526;9.044;2022-09-14T09:48:55;3.85;;;1.88;;
69083;SDS011;56185;48.526;9.044;2022-09-14T09:51:28;2.30;;;1.60;;
69083;SDS011;56185;48.526;9.044;2022-09-14T09:53:56;5.32;;;2.05;;
69083;SDS011;56185;48.526;9.044;2022-09-14T09:56:30;5.13;;;1.83;;
69083;SDS011;56185;48.526;9.044;2022-09-14T09:58:57;5.65;;;1.75;;
69083;SDS011;56185;48.526;9.044;2022-09-14T10:01:26;3.17;;;1.90;;
69083;SDS011;56185;48.526;9.044;2022-09-14T10:06:42;5.57;;;1.80;;
69083;SDS011;56185;48.526;9.044;2022-09-14T10:09:14;2.80;;;1.85;;
69083;SDS011;56185;48.526;9.044;2022-09-14T10:11:44;2.83;;;1.67;;
69083;SDS011;56185;48.526;9.044;2022-09-14T10:14:21;3.80;;;1.67;;
69083;SDS011;56185;48.526;9.044;2022-09-14T10:17:02;3.95;;;1.65;;
69083;SDS011;56185;48.526;9.044;2022-09-14T10:19:39;2.25;;;1.30;;
69083;SDS011;56185;48.526;9.044;2022-09-14T10:24:56;3.10;;;1.50;;
69083;SDS011;56185;48.526;9.044;2022-09-14T10:33:02;3.03;;;1.50;;
69083;SDS011;56185;48.526;9.044;2022-09-14T10:38:21;2.80;;;1.42;;
69083;SDS011;56185;48.526;9.044;2022-09-14T10:52:55;2.58;;;1.40;;
69083;SDS011;56185;48.526;9.044;2022-09-14T10:57:30;3.43;;;1.40;;
69083;SDS011;56185;48.526;9.044;2022-09-14T11:00:14;3.90;;;1.53;;
69083;SDS011;56185;48.526;9.044;2022-09-14T11:05:32;3.75;;;1.50;;
69083;SDS011;56185;48.526;9.044;2022-09-14T11:13:40;2.60;;;1.30;;
69083;SDS011;56185;48.526;9.044;2022-09-14T11:19:50;3.70;;;1.55;;
69083;SDS011;56185;48.526;9.044;2022-09-14T11:25:19;2.30;;;1.38;;
69083;SDS011;56185;48.526;9.044;2022-09-14T11:27:51;2.80;;;1.42;;
69083;SDS011;56185;48.526;9.044;2022-09-14T11:30:22;4.03;;;1.45;;
69083;SDS011;56185;48.526;9.044;2022-09-14T11:32:52;3.97;;;1.30;;
69083;SDS011;56185;48.526;9.044;2022-09-14T11:40:23;3.63;;;1.65;;
69083;SDS011;56185;48.526;9.044;2022-09-14T11:43:02;3.75;;;1.40;;
69083;SDS011;56185;48.526;9.044;2022-09-14T11:45:36;6.03;;;1.50;;
69083;SDS011;56185;48.526;9.044;2022-09-14T11:51:08;2.75;;;1.40;;
69083;SDS011;56185;48.526;9.044;2022-09-14T11:53:41;3.25;;;1.50;;
69083;SDS011;56185;48.526;9.044;2022-09-14T11:56:21;4.13;;;1.50;;
69083;SDS011;56185;48.526;9.044;2022-09-14T11:58:49;4.05;;;1.60;;
69083;SDS011;56185;48.526;9.044;2022-09-14T12:11:43;3.33;;;1.67;;
69083;SDS011;56185;48.526;9.044;2022-09-14T12:14:13;3.88;;;1.42;;
69083;SDS011;56185;48.526;9.044;2022-09-14T12:22:16;4.13;;;1.80;;
69083;SDS011;56185;48.526;9.044;2022-09-14T12:24:41;4.18;;;1.70;;
69083;SDS011;56185;48.526;9.044;2022-09-14T12:27:14;7.05;;;1.92;;
69083;SDS011;56185;48.526;9.044;2022-09-14T12:29:45;6.35;;;2.30;;
69083;SDS011;56185;48.526;9.044;2022-09-14T12:32:24;5.30;;;1.97;;
69083;SDS011;56185;48.526;9.044;2022-09-14T12:40:56;4.90;;;2.10;;
69083;SDS011;56185;48.526;9.044;2022-09-14T13:04:36;3.67;;;1.33;;
69083;SDS011;56185;48.526;9.044;2022-09-14T13:07:04;3.55;;;1.33;;
69083;SDS011;56185;48.526;9.044;2022-09-14T13:09:31;6.03;;;1.70;;
69083;SDS011;56185;48.526;9.044;2022-09-14T13:12:04;4.10;;;1.80;;
69083;SDS011;56185;48.526;9.044;2022-09-14T13:14:47;4.63;;;1.52;;
69083;SDS011;56185;48.526;9.044;2022-09-14T13:17:18;4.40;;;1.50;;
69083;SDS011;56185;48.526;9.044;2022-09-14T13:19:52;4.85;;;1.60;;
69083;SDS011;56185;48.526;9.044;2022-09-14T13:22:20;3.20;;;1.25;;
69083;SDS011;56185;48.526;9.044;2022-09-14T13:24:47;4.70;;;1.50;;
69083;SDS011;56185;48.526;9.044;2022-09-14T13:27:29;3.20;;;1.48;;
69083;SDS011;56185;48.526;9.044;2022-09-14T13:30:00;3.22;;;1.30;;
69083;SDS011;56185;48.526;9.044;2022-09-14T13:32:28;3.92;;;1.50;;
69083;SDS011;56185;48.526;9.044;2022-09-14T13:34:54;6.95;;;1.20;;
69083;SDS011;56185;48.526;9.044;2022-09-14T13:37:20;8.30;;;1.80;;
69083;SDS011;56185;48.526;9.044;2022-09-14T13:39:48;4.32;;;1.42;;
69083;SDS011;56185;48.526;9.044;2022-09-14T13:42:16;3.78;;;1.40;;
69083;SDS011;56185;48.526;9.044;2022-09-14T13:44:43;3.72;;;1.33;;
69083;SDS011;56185;48.526;9.044;2022-09-14T13:47:10;2.28;;;1.23;;
69083;SDS011;56185;48.526;9.044;2022-09-14T13:49:38;2.72;;;1.20;;
69083;SDS011;56185;48.526;9.044;2022-09-14T13:54:48;2.80;;;1.13;;
69083;SDS011;56185;48.526;9.044;2022-09-14T13:57:16;5.68;;;1.40;;
69083;SDS011;56185;48.526;9.044;2022-09-14T14:03:00;2.45;;;1.13;;
69083;SDS011;56185;48.526;9.044;2022-09-14T14:05:32;3.20;;;1.20;;
69083;SDS011;56185;48.526;9.044;2022-09-14T14:08:00;1.33;;;0.90;;
69083;SDS011;56185;48.526;9.044;2022-09-14T14:10:27;1.35;;;0.80;;
69083;SDS011;56185;48.526;9.044;2022-09-14T14:12:59;1.67;;;0.85;;
69083;SDS011;56185;48.526;9.044;2022-09-14T14:17:51;1.93;;;0.90;;
69083;SDS011;56185;48.526;9.044;2022-09-14T14:20:34;1.42;;;0.82;;
69083;SDS011;56185;48.526;9.044;2022-09-14T14:23:01;2.03;;;0.70;;
69083;SDS011;56185;48.526;9.044;2022-09-14T14:25:43;1.50;;;0.80;;
69083;SDS011;56185;48.526;9.044;2022-09-14T14:28:18;2.13;;;0.80;;
69083;SDS011;56185;48.526;9.044;2022-09-14T14:30:46;5.38;;;1.08;;
69083;SDS011;56185;48.526;9.044;2022-09-14T14:33:12;4.03;;;0.98;;
69083;SDS011;56185;48.526;9.044;2022-09-14T14:35:39;2.72;;;0.80;;
69083;SDS011;56185;48.526;9.044;2022-09-14T14:38:04;2.03;;;0.70;;
69083;SDS011;56185;48.526;9.044;2022-09-14T14:40:30;1.58;;;0.80;;
69083;SDS011;56185;48.526;9.044;2022-09-14T14:42:57;2.45;;;0.95;;
69083;SDS011;56185;48.526;9.044;2022-09-14T14:45:23;5.88;;;1.02;;
69083;SDS011;56185;48.526;9.044;2022-09-14T14:47:51;2.05;;;0.80;;
69083;SDS011;56185;48.526;9.044;2022-09-14T14:50:20;4.47;;;0.90;;
69083;SDS011;56185;48.526;9.044;2022-09-14T14:52:47;3.78;;;0.82;;
69083;SDS011;56185;48.526;9.044;2022-09-14T14:55:13;3.20;;;1.05;;
69083;SDS011;56185;48.526;9.044;2022-09-14T14:57:38;1.52;;;0.90;;
69083;SDS011;56185;48.526;9.044;2022-09-14T15:00:04;3.47;;;0.90;;
69083;SDS011;56185;48.526;9.044;2022-09-14T15:02:35;2.30;;;0.90;;
69083;SDS011;56185;48.526;9.044;2022-09-14T15:05:00;3.00;;;1.10;;
69083;SDS011;56185;48.526;9.044;2022-09-14T15:07:25;2.07;;;1.07;;
69083;SDS011;56185;48.526;9.044;2022-09-14T15:09:51;2.57;;;1.30;;
69083;SDS011;56185;48.526;9.044;2022-09-14T15:12:16;3.10;;;1.30;;
69083;SDS011;56185;48.526;9.044;2022-09-14T15:14:41;1.70;;;1.07;;
69083;SDS011;56185;48.526;9.044;2022-09-14T15:17:06;2.00;;;1.07;;
69083;SDS011;56185;48.526;9.044;2022-09-14T15:19:31;2.40;;;1.10;;
69083;SDS011;56185;48.526;9.044;2022-09-14T15:21:57;3.03;;;1.10;;
69083;SDS011;56185;48.526;9.044;2022-09-14T15:24:22;2.30;;;1.00;;
69083;SDS011;56185;48.526;9.044;2022-09-14T15:26:47;1.77;;;1.00;;
69083;SDS011;56185;48.526;9.044;2022-09-14T15:29:12;1.75;;;0.80;;
69083;SDS011;56185;48.526;9.044;2022-09-14T15:31:41;2.53;;;0.90;;
69083;SDS011;56185;48.526;9.044;2022-09-14T15:34:06;3.65;;;1.00;;
69083;SDS011;56185;48.526;9.044;2022-09-14T15:36:38;1.73;;;0.80;;
69083;SDS011;56185;48.526;9.044;2022-09-14T15:39:07;1.45;;;0.80;;
69083;SDS011;56185;48.526;9.044;2022-09-14T15:41:36;1.40;;;0.80;;
69083;SDS011;56185;48.526;9.044;2022-09-14T15:44:02;1.42;;;0.70;;
69083;SDS011;56185;48.526;9.044;2022-09-14T15:46:28;1.10;;;0.70;;
69083;SDS011;56185;48.526;9.044;2022-09-14T15:48:54;1.65;;;0.80;;
69083;SDS011;56185;48.526;9.044;2022-09-14T15:51:19;2.23;;;0.80;;
69083;SDS011;56185;48.526;9.044;2022-09-14T15:53:45;1.10;;;0.80;;
69083;SDS011;56185;48.526;9.044;2022-09-14T15:56:10;3.83;;;0.80;;
69083;SDS011;56185;48.526;9.044;2022-09-14T15:58:37;2.95;;;0.80;;
69083;SDS011;56185;48.526;9.044;2022-09-14T16:01:09;2.70;;;0.70;;
69083;SDS011;56185;48.526;9.044;2022-09-14T16:03:35;1.48;;;0.88;;
69083;SDS011;56185;48.526;9.044;2022-09-14T16:06:01;1.92;;;0.77;;
69083;SDS011;56185;48.526;9.044;2022-09-14T16:08:26;1.10;;;0.80;;
69083;SDS011;56185;48.526;9.044;2022-09-14T16:10:58;1.58;;;0.90;;
69083;SDS011;56185;48.526;9.044;2022-09-14T16:13:24;2.58;;;0.90;;
69083;SDS011;56185;48.526;9.044;2022-09-14T16:15:49;1.40;;;0.70;;
69083;SDS011;56185;48.526;9.044;2022-09-14T16:18:15;1.33;;;0.80;;
69083;SDS011;56185;48.526;9.044;2022-09-14T16:20:40;1.53;;;0.77;;
69083;SDS011;56185;48.526;9.044;2022-09-14T16:23:05;1.40;;;0.80;;
69083;SDS011;56185;48.526;9.044;2022-09-14T16:25:35;4.97;;;1.17;;
69083;SDS011;56185;48.526;9.044;2022-09-14T16:28:01;1.13;;;0.80;;
69083;SDS011;56185;48.526;9.044;2022-09-14T16:30:26;1.23;;;0.80;;
69083;SDS011;56185;48.526;9.044;2022-09-14T16:32:51;1.90;;;0.77;;
69083;SDS011;56185;48.526;9.044;2022-09-14T16:35:17;2.10;;;0.80;;
69083;SDS011;56185;48.526;9.044;2022-09-14T16:37:42;1.60;;;0.90;;
69083;SDS011;56185;48.526;9.044;2022-09-14T16:40:07;1.70;;;0.90;;
69083;SDS011;56185;48.526;9.044;2022-09-14T16:42:33;1.38;;;0.80;;
69083;SDS011;56185;48.526;9.044;2022-09-14T16:44:58;1.97;;;0.80;;
69083;SDS011;56185;48.526;9.044;2022-09-14T16:47:23;1.63;;;0.90;;
69083;SDS011;56185;48.526;9.044;2022-09-14T16:49:48;1.67;;;0.70;;
69083;SDS011;56185;48.526;9.044;2022-09-14T16:52:14;1.50;;;0.77;;
69083;SDS011;56185;48.526;9.044;2022-09-14T16:54:39;1.57;;;0.90;;
69083;SDS011;56185;48.526;9.044;2022-09-14T16:57:04;1.90;;;0.90;;
69083;SDS011;56185;48.526;9.044;2022-09-14T16:59:29;5.07;;;0.90;;
69083;SDS011;56185;48.526;9.044;2022-09-14T17:01:55;2.47;;;0.80;;
69083;SDS011;56185;48.526;9.044;2022-09-14T17:04:20;2.57;;;0.80;;
69083;SDS011;56185;48.526;9.044;2022-09-14T17:06:46;2.38;;;0.88;;
69083;SDS011;56185;48.526;9.044;2022-09-14T17:09:14;1.48;;;0.70;;
69083;SDS011;56185;48.526;9.044;2022-09-14T17:11:42;2.45;;;1.00;;
69083;SDS011;56185;48.526;9.044;2022-09-14T17:14:08;2.42;;;1.00;;
69083;SDS011;56185;48.526;9.044;2022-09-14T17:16:41;1.50;;;1.10;;
69083;SDS011;56185;48.526;9.044;2022-09-14T17:19:06;2.25;;;0.90;;
69083;SDS011;56185;48.526;9.044;2022-09-14T17:21:33;2.67;;;0.90;;
69083;SDS011;56185;48.526;9.044;2022-09-14T17:24:00;1.10;;;0.80;;
69083;SDS011;56185;48.526;9.044;2022-09-14T17:26:26;2.20;;;1.00;;
69083;SDS011;56185;48.526;9.044;2022-09-14T17:28:53;1.20;;;0.80;;
69083;SDS011;56185;48.526;9.044;2022-09-14T17:31:20;1.60;;;0.88;;
69083;SDS011;56185;48.526;9.044;2022-09-14T17:33:47;2.55;;;1.02;;